^^
Grace C. Lehan Memorial Weather Station Historical Data
Daily Summary for May 7, 2021 Units:  Metric    English   Both
Daily Weekly Monthly Yearly
  High: Low: Average:
Temperature: 27.4 °C 14.2 °C 20.1 °C
Dew Point: 17.6 °C 12.7 °C 14.9 °C
Humidity: 92% 48.5% 74%
Wind Speed: 5.8km/h 0km/h 0.5km/h
Wind Gust: 20.9km/h - -
Wind- - West
Pressure: 1013.8 hPa 1010.7 hPa -
Precipitation: 0 mm    
 
 
Tabular Data for May 7, 2021
Time Temperature Dew Point Pressure Wind Wind Speed Wind Gust Humidity Rainfall Rate (Hourly) solar
00:00 17.4 °C 14.3 °C 1010.7 hPa Calm   3.2 km/h 82% 0 mm 0 W/m2
00:09 17.3 °C 14.3 °C 1011.1 hPa Calm   1.6 km/h 82.5% 0 mm 0 W/m2
00:14 17.3 °C 14.2 °C 1011.1 hPa WNW 0.2 km/h 3.2 km/h 82% 0 mm 0 W/m2
00:19 17.3 °C 14.2 °C 1011.1 hPa WNW 0.2 km/h 3.2 km/h 82% 0 mm 0 W/m2
00:24 17.2 °C 14.1 °C 1011.1 hPa Calm   3.2 km/h 82% 0 mm 0 W/m2
00:29 17.2 °C 14.1 °C 1011.1 hPa Calm   3.2 km/h 82% 0 mm 0 W/m2
00:34 17.2 °C 14.1 °C 1011.1 hPa Calm   3.2 km/h 82% 0 mm 0 W/m2
00:39 17.2 °C 14.1 °C 1011.1 hPa Calm   1.6 km/h 82.4% 0 mm 0 W/m2
00:44 17.1 °C 14.2 °C 1011.1 hPa Calm   1.6 km/h 83% 0 mm 0 W/m2
00:49 17 °C 14.1 °C 1011.1 hPa Calm   1.6 km/h 83% 0 mm 0 W/m2
00:54 16.9 °C 14 °C 1011.1 hPa Calm   1.6 km/h 83% 0 mm 0 W/m2
00:59 16.8 °C 13.9 °C 1011.1 hPa Calm   1.6 km/h 83% 0 mm 0 W/m2
01:04 16.8 °C 13.8 °C 1011.1 hPa Calm   1.6 km/h 83% 0 mm 0 W/m2
01:09 16.7 °C 13.8 °C 1010.7 hPa Calm     83% 0 mm 0 W/m2
01:14 16.7 °C 13.9 °C 1010.7 hPa Calm     84% 0 mm 0 W/m2
01:19 16.6 °C 13.9 °C 1010.7 hPa Calm   1.6 km/h 84% 0 mm 0 W/m2
01:24 16.6 °C 13.8 °C 1010.7 hPa Calm   1.6 km/h 84% 0 mm 0 W/m2
01:29 16.4 °C 13.8 °C 1010.7 hPa WNW 0.2 km/h 1.6 km/h 84.4% 0 mm 0 W/m2
01:34 16.4 °C 13.8 °C 1010.7 hPa Calm   3.2 km/h 85% 0 mm 0 W/m2
01:39 16.3 °C 13.8 °C 1010.7 hPa Calm   3.2 km/h 85% 0 mm 0 W/m2
01:44 16.2 °C 13.7 °C 1010.7 hPa Calm   3.2 km/h 85% 0 mm 0 W/m2
01:49 16.2 °C 13.8 °C 1010.7 hPa Calm   3.2 km/h 86% 0 mm 0 W/m2
01:54 16.2 °C 13.8 °C 1010.7 hPa Calm   3.2 km/h 86% 0 mm 0 W/m2
01:59 16.1 °C 13.7 °C 1010.7 hPa Calm   3.2 km/h 86% 0 mm 0 W/m2
02:04 16 °C 13.7 °C 1010.7 hPa Calm   3.2 km/h 86% 0 mm 0 W/m2
02:09 15.9 °C 13.7 °C 1010.7 hPa Calm     86.7% 0 mm 0 W/m2
02:14 15.8 °C 13.7 °C 1010.7 hPa Calm     87% 0 mm 0 W/m2
02:19 15.8 °C 13.6 °C 1010.7 hPa Calm     87% 0 mm 0 W/m2
02:24 15.7 °C 13.6 °C 1010.7 hPa Calm     87% 0 mm 0 W/m2
02:29 15.7 °C 13.5 °C 1010.7 hPa WNW 0.2 km/h 6.4 km/h 87% 0 mm 0 W/m2
02:34 15.7 °C 13.5 °C 1010.7 hPa Calm   6.4 km/h 87% 0 mm 0 W/m2
02:39 15.7 °C 13.5 °C 1011.1 hPa Calm   1.6 km/h 87% 0 mm 0 W/m2
02:44 15.7 °C 13.5 °C 1011.1 hPa Calm   1.6 km/h 87% 0 mm 0 W/m2
02:49 15.7 °C 13.6 °C 1011.1 hPa WNW 0.2 km/h 4.8 km/h 87% 0 mm 0 W/m2
02:54 15.7 °C 13.6 °C 1011.1 hPa Calm   4.8 km/h 87% 0 mm 0 W/m2
02:59 15.8 °C 13.6 °C 1011.1 hPa Calm   4.8 km/h 87% 0 mm 0 W/m2
03:04 15.8 °C 13.6 °C 1011.1 hPa Calm   4.8 km/h 87% 0 mm 0 W/m2
03:09 15.8 °C 13.6 °C 1011.1 hPa Calm     87% 0 mm 0 W/m2
03:14 15.7 °C 13.6 °C 1011.1 hPa Calm     87% 0 mm 0 W/m2
03:19 15.7 °C 13.5 °C 1011.1 hPa Calm     87% 0 mm 0 W/m2
03:24 15.7 °C 13.5 °C 1011.1 hPa Calm     87% 0 mm 0 W/m2
03:29 15.6 °C 13.4 °C 1011.1 hPa Calm     87% 0 mm 0 W/m2
03:34 15.6 °C 13.4 °C 1011.1 hPa Calm     87.2% 0 mm 0 W/m2
03:39 15.6 °C 13.6 °C 1011.1 hPa Calm     88% 0 mm 0 W/m2
03:44 15.5 °C 13.5 °C 1011.1 hPa Calm     88% 0 mm 0 W/m2
03:49 15.4 °C 13.4 °C 1011.1 hPa Calm   1.6 km/h 88% 0 mm 0 W/m2
03:54 15.4 °C 13.4 °C 1011.1 hPa Calm   1.6 km/h 88% 0 mm 0 W/m2
03:59 15.3 °C 13.4 °C 1011.1 hPa Calm   1.6 km/h 88% 0 mm 0 W/m2
04:00 15.3 °C 13.4 °C 1011.1 hPa Calm   1.6 km/h 88% 0 mm 0 W/m2
04:09 15.2 °C 13.4 °C 1011.4 hPa Calm     88.8% 0 mm 0 W/m2
04:14 15.2 °C 13.4 °C 1011.4 hPa WNW 0.3 km/h 4.8 km/h 89% 0 mm 0 W/m2
04:19 15.1 °C 13.3 °C 1011.4 hPa Calm   4.8 km/h 89% 0 mm 0 W/m2
04:24 15.1 °C 13.3 °C 1011.4 hPa Calm   4.8 km/h 89% 0 mm 0 W/m2
04:29 15 °C 13.2 °C 1011.4 hPa Calm   4.8 km/h 89% 0 mm 0 W/m2
04:34 14.9 °C 13.2 °C 1011.4 hPa Calm   4.8 km/h 89% 0 mm 0 W/m2
04:39 14.9 °C 13.1 °C 1011.7 hPa Calm     89% 0 mm 0 W/m2
04:44 14.9 °C 13.1 °C 1011.4 hPa Calm     89% 0 mm 0 W/m2
04:49 14.8 °C 13.1 °C 1011.4 hPa Calm     89% 0 mm 0 W/m2
04:54 14.8 °C 13 °C 1011.4 hPa Calm     89% 0 mm 0 W/m2
04:59 14.8 °C 13.1 °C 1011.4 hPa Calm     89.4% 0 mm 0 W/m2
05:04 14.7 °C 13.1 °C 1011.7 hPa Calm     90% 0 mm 0 W/m2
05:09 14.7 °C 13.1 °C 1011.7 hPa Calm     90% 0 mm 0 W/m2
05:14 14.6 °C 13 °C 1011.7 hPa Calm     90% 0 mm 0 W/m2
05:19 14.6 °C 12.9 °C 1011.7 hPa Calm     90% 0 mm 0 W/m2
05:24 14.6 °C 12.9 °C 1011.7 hPa Calm     90% 0 mm 0 W/m2
05:29 14.5 °C 12.9 °C 1011.7 hPa Calm     90% 0 mm 0 W/m2
05:34 14.4 °C 12.8 °C 1011.7 hPa Calm     90% 0 mm 0 W/m2
05:39 14.4 °C 12.8 °C 1011.7 hPa Calm     90% 0 mm 0 W/m2
05:44 14.4 °C 12.8 °C 1011.7 hPa Calm     90% 0 mm 0 W/m2
05:49 14.3 °C 12.7 °C 1011.7 hPa Calm     90% 0 mm 0 W/m2
05:54 14.3 °C 12.8 °C 1012.1 hPa Calm     90.5% 0 mm 0 W/m2
05:59 14.3 °C 12.8 °C 1012.1 hPa Calm     91% 0 mm 0 W/m2
06:04 14.3 °C 12.7 °C 1012.1 hPa Calm     90.1% 0 mm 0 W/m2
06:09 14.2 °C 12.8 °C 1012.1 hPa Calm     90.9% 0 mm 0 W/m2
06:14 14.2 °C 12.7 °C 1012.1 hPa Calm     91% 0 mm 0 W/m2
06:19 14.2 °C 12.8 °C 1012.1 hPa Calm     91% 0 mm 0 W/m2
06:24 14.2 °C 12.8 °C 1012.4 hPa Calm     91% 0 mm 0 W/m2
06:29 14.2 °C 12.8 °C 1012.4 hPa Calm     91% 0 mm 0 W/m2
06:34 14.3 °C 12.8 °C 1012.4 hPa Calm     91% 0 mm 5 W/m2
06:39 14.3 °C 12.8 °C 1012.4 hPa Calm     91% 0 mm 7 W/m2
06:44 14.3 °C 12.8 °C 1012.4 hPa Calm     91% 0 mm 9 W/m2
06:49 14.3 °C 12.8 °C 1012.4 hPa Calm     91% 0 mm 11 W/m2
06:54 14.3 °C 12.8 °C 1012.4 hPa Calm     91% 0 mm 11 W/m2
06:59 14.3 °C 12.9 °C 1012.4 hPa Calm     91% 0 mm 12 W/m2
07:04 14.3 °C 12.9 °C 1012.8 hPa Calm     91% 0 mm 14 W/m2
07:09 14.4 °C 12.9 °C 1012.8 hPa Calm     91% 0 mm 16 W/m2
07:14 14.4 °C 13 °C 1012.8 hPa Calm     91% 0 mm 16 W/m2
07:19 14.4 °C 13 °C 1012.8 hPa Calm     91% 0 mm 16 W/m2
07:24 14.5 °C 13.2 °C 1012.8 hPa Calm     91.7% 0 mm 18 W/m2
07:29 14.6 °C 13.2 °C 1012.8 hPa Calm     92% 0 mm 19 W/m2
07:34 14.6 °C 13.3 °C 1012.8 hPa Calm     92% 0 mm 19 W/m2
07:39 14.7 °C 13.4 °C 1013.1 hPa Calm     92% 0 mm 21 W/m2
07:44 14.8 °C 13.4 °C 1013.1 hPa Calm     91.5% 0 mm 23 W/m2
07:49 14.8 °C 13.4 °C 1013.1 hPa Calm     91.4% 0 mm 25 W/m2
07:54 15 °C 13.6 °C 1013.1 hPa Calm     91.1% 0 mm 28 W/m2
07:59 15.2 °C 13.7 °C 1013.1 hPa Calm     91% 0 mm 32 W/m2
08:09 15.6 °C 13.9 °C 1013.4 hPa Calm     89.7% 0 mm 44 W/m2
08:14 15.9 °C 14.1 °C 1013.4 hPa Calm     88.9% 0 mm 51 W/m2
08:19 16.2 °C 14.2 °C 1013.4 hPa Calm     87.9% 0 mm 65 W/m2
08:24 16.4 °C 14.2 °C 1013.4 hPa Calm     86.6% 0 mm 98 W/m2
08:29 16.7 °C 14.3 °C 1013.4 hPa Calm     85.8% 0 mm 192 W/m2
08:33 16.9 °C 14.4 °C 1013.4 hPa Calm     85% 0 mm 360 W/m2
09:00 20.3 °C 15.8 °C 1013.4 hPa Calm   1.6 km/h 75% 0 mm 422 W/m2
09:30 23.6 °C 17.6 °C 1013.4 hPa Calm   8 km/h 69% 0 mm 522 W/m2
10:00 25.2 °C 16.9 °C 1013.4 hPa Calm   6.4 km/h 60% 0 mm 608 W/m2
10:30 26.1 °C 17.2 °C 1013.8 hPa West 1.6 km/h 11.3 km/h 58% 0 mm 681 W/m2
11:00 26.9 °C 16.6 °C 1013.8 hPa WSW 1.6 km/h 17.7 km/h 53% 0 mm 742 W/m2
11:30 25.4 °C 16.1 °C 1013.4 hPa West 4.8 km/h 20.9 km/h 56% 0 mm 552 W/m2
12:04 25.4 °C 15.7 °C 1013.1 hPa NW 3.4 km/h 8 km/h 55% 0 mm 121 W/m2
12:09 25.2 °C 15.9 °C 1013.1 hPa WNW 3.1 km/h 11.3 km/h 56.2% 0 mm 165 W/m2
12:14 24.9 °C 15.8 °C 1013.1 hPa WSW 3.1 km/h 11.3 km/h 56.9% 0 mm 206 W/m2
12:19 24.8 °C 16 °C 1013.1 hPa West 3.2 km/h 11.3 km/h 57.9% 0 mm 262 W/m2
12:24 24.9 °C 16.1 °C 1013.1 hPa WSW 1.4 km/h 11.3 km/h 58.1% 0 mm 288 W/m2
12:29 25.1 °C 16.5 °C 1013.1 hPa WNW 2.9 km/h 11.3 km/h 59% 0 mm 211 W/m2
12:34 25.2 °C 16.4 °C 1013.1 hPa NNW 3.4 km/h 11.3 km/h 58.3% 0 mm 163 W/m2
12:39 25.3 °C 16.1 °C 1013.1 hPa NW 5.8 km/h 11.3 km/h 56.8% 0 mm 264 W/m2
12:44 25.2 °C 16.4 °C 1013.1 hPa NW 3.4 km/h 11.3 km/h 58.1% 0 mm 272 W/m2
12:49 25.2 °C 16.3 °C 1013.1 hPa NNW 2.1 km/h 11.3 km/h 57.7% 0 mm 390 W/m2
12:54 25.1 °C 16.1 °C 1013.1 hPa NW 3.7 km/h 12.9 km/h 57.3% 0 mm 390 W/m2
12:59 24.8 °C 15.7 °C 1013.1 hPa WNW 2.4 km/h 12.9 km/h 56.9% 0 mm 292 W/m2
13:04 24.8 °C 16 °C 1013.1 hPa NW 2.1 km/h 12.9 km/h 58.1% 0 mm 225 W/m2
13:09 24.9 °C 16.6 °C 1013.1 hPa NW 0.5 km/h 9.7 km/h 59.8% 0 mm 192 W/m2
13:14 24.9 °C 15.6 °C 1013.1 hPa NW 2.7 km/h 9.7 km/h 56.3% 0 mm 155 W/m2
13:19 24.7 °C 15.6 °C 1013.1 hPa WNW 1.1 km/h 9.7 km/h 56.9% 0 mm 142 W/m2
13:24 24.7 °C 15.9 °C 1012.8 hPa WNW 1.4 km/h 9.7 km/h 58.1% 0 mm 221 W/m2
13:29 24.9 °C 16.2 °C 1013.1 hPa WNW 1 km/h 9.7 km/h 58.6% 0 mm 264 W/m2
13:34 25.2 °C 16.2 °C 1013.1 hPa West 5.6 km/h 17.7 km/h 57.3% 0 mm 269 W/m2
13:39 25.3 °C 15.9 °C 1013.1 hPa WNW 5.3 km/h 17.7 km/h 56% 0 mm 369 W/m2
13:44 25.2 °C 15.9 °C 1013.1 hPa WNW 3.7 km/h 17.7 km/h 56.5% 0 mm 276 W/m2
13:49 25.1 °C 15.9 °C 1013.1 hPa WNW 2.9 km/h 17.7 km/h 56.7% 0 mm 232 W/m2
13:54 25.1 °C 15.9 °C 1012.8 hPa West 1.1 km/h 17.7 km/h 56.9% 0 mm 274 W/m2
13:59 25.2 °C 16.1 °C 1012.8 hPa West 1 km/h 17.7 km/h 56.8% 0 mm 155 W/m2
14:04 25.3 °C 15.8 °C 1012.8 hPa West 2.1 km/h 17.7 km/h 55.6% 0 mm 202 W/m2
14:09 25.3 °C 15.9 °C 1012.8 hPa West 1.4 km/h 9.7 km/h 56% 0 mm 158 W/m2
14:14 25.4 °C 15.7 °C 1012.8 hPa West 0.8 km/h 9.7 km/h 55% 0 mm 849 W/m2
14:19 25.6 °C 15.5 °C 1012.8 hPa SW 2.3 km/h 16.1 km/h 53.4% 0 mm 877 W/m2
14:24 25.8 °C 15.7 °C 1012.8 hPa West 2.4 km/h 16.1 km/h 53.5% 0 mm 900 W/m2
14:29 26.1 °C 15.5 °C 1012.8 hPa WNW 4.5 km/h 16.1 km/h 52.3% 0 mm 886 W/m2
14:34 26.1 °C 15.6 °C 1012.4 hPa NW 3.2 km/h 16.1 km/h 52.2% 0 mm 826 W/m2
14:39 26.3 °C 15.9 °C 1012.4 hPa NW 1.6 km/h 8 km/h 53% 0 mm 807 W/m2
14:44 26.6 °C 16.2 °C 1012.4 hPa NW 2.7 km/h 8 km/h 52.9% 0 mm 805 W/m2
14:49 26.8 °C 16 °C 1012.4 hPa West 3.7 km/h 9.7 km/h 51.4% 0 mm 793 W/m2
14:54 27 °C 15.9 °C 1012.4 hPa West 3.2 km/h 9.7 km/h 50.7% 0 mm 782 W/m2
14:59 27.1 °C 15.9 °C 1012.4 hPa WSW 2.6 km/h 9.7 km/h 50.5% 0 mm 772 W/m2
15:04 27.2 °C 15.8 °C 1012.4 hPa West 2.7 km/h 9.7 km/h 49.7% 0 mm 763 W/m2
15:09 27.3 °C 15.8 °C 1012.4 hPa West 1.6 km/h 8 km/h 49.6% 0 mm 759 W/m2
15:14 27.4 °C 15.6 °C 1012.4 hPa WSW 1.1 km/h 8 km/h 48.5% 0 mm 759 W/m2
15:19 27.3 °C 15.8 °C 1012.4 hPa WSW 0.2 km/h 8 km/h 49.4% 0 mm 768 W/m2
15:24 26.9 °C 15.4 °C 1012.1 hPa Calm   8 km/h 49.6% 0 mm 761 W/m2
15:29 26.7 °C 15.4 °C 1012.1 hPa Calm   8 km/h 50% 0 mm 752 W/m2
15:34 26.8 °C 15.7 °C 1012.1 hPa WSW 1 km/h 8 km/h 50.5% 0 mm 738 W/m2
15:39 27.1 °C 15.7 °C 1012.1 hPa WSW 0.8 km/h 4.8 km/h 50% 0 mm 701 W/m2
15:44 27.3 °C 15.8 °C 1012.1 hPa WSW 1.9 km/h 4.8 km/h 49.6% 0 mm 691 W/m2
15:49 27.3 °C 15.6 °C 1012.1 hPa WSW 1.9 km/h 8 km/h 48.6% 0 mm 668 W/m2
15:54 27.2 °C 15.4 °C 1012.1 hPa West 0.8 km/h 8 km/h 48.5% 0 mm 679 W/m2
15:59 26.9 °C 15.3 °C 1012.1 hPa West 0.3 km/h 8 km/h 49.1% 0 mm 677 W/m2
16:09 26.4 °C 15.7 °C 1011.7 hPa West 1.3 km/h 6.4 km/h 51.9% 0 mm 98 W/m2
16:14 26.3 °C 15.8 °C 1011.7 hPa West 1.9 km/h 8 km/h 52.4% 0 mm 69 W/m2
16:19 26.3 °C 15.9 °C 1011.7 hPa West 1.6 km/h 8 km/h 52.6% 0 mm 63 W/m2
16:24 26.3 °C 16 °C 1011.7 hPa West 1.1 km/h 8 km/h 52.9% 0 mm 44 W/m2
16:29 26.3 °C 16.1 °C 1011.7 hPa West 0.5 km/h 8 km/h 53.4% 0 mm 69 W/m2
16:34 26.2 °C 16.1 °C 1012.1 hPa West 0.3 km/h 8 km/h 53.8% 0 mm 100 W/m2
16:39 26 °C 15.9 °C 1012.1 hPa West 1.1 km/h 4.8 km/h 53.8% 0 mm 107 W/m2
16:44 25.9 °C 16 °C 1011.7 hPa West 1 km/h 6.4 km/h 54.2% 0 mm 79 W/m2
16:49 26 °C 15.7 °C 1011.7 hPa WSW 1.3 km/h 6.4 km/h 53.2% 0 mm 54 W/m2
16:54 25.9 °C 15.6 °C 1011.7 hPa WSW 0.2 km/h 6.4 km/h 53% 0 mm 42 W/m2
16:59 25.8 °C 15.9 °C 1011.7 hPa Calm   6.4 km/h 54.8% 0 mm 44 W/m2
17:04 25.7 °C 16.2 °C 1011.7 hPa Calm   6.4 km/h 55.7% 0 mm 40 W/m2
17:09 25.6 °C 15.9 °C 1011.7 hPa Calm   3.2 km/h 55.2% 0 mm 54 W/m2
17:13 25.6 °C 15.8 °C 1011.7 hPa WSW 1.8 km/h 6.4 km/h 54.8% 0 mm 56 W/m2
17:19 25.5 °C 15.7 °C 1011.7 hPa WSW 0.3 km/h 6.4 km/h 54.5% 0 mm 63 W/m2
17:24 25.5 °C 15.7 °C 1011.7 hPa WSW 0.6 km/h 6.4 km/h 54.7% 0 mm 62 W/m2
17:29 25.5 °C 16.1 °C 1011.7 hPa WSW 0.2 km/h 6.4 km/h 55.9% 0 mm 49 W/m2
17:34 25.5 °C 16.1 °C 1011.7 hPa WSW 0.5 km/h 8 km/h 55.9% 0 mm 39 W/m2
17:39 25.5 °C 16.1 °C 1011.7 hPa WSW 1.3 km/h 8 km/h 56% 0 mm 35 W/m2
17:44 25.5 °C 15.9 °C 1011.7 hPa WSW 0.3 km/h 8 km/h 55.6% 0 mm 28 W/m2
17:49 25.4 °C 15.7 °C 1011.7 hPa Calm   8 km/h 55% 0 mm 33 W/m2
17:54 25.3 °C 15.9 °C 1012.1 hPa Calm   8 km/h 56.1% 0 mm 37 W/m2
17:59 25.3 °C 16.1 °C 1012.1 hPa WSW 0.8 km/h 8 km/h 56.5% 0 mm 39 W/m2
18:04 25.2 °C 16 °C 1012.1 hPa Calm   8 km/h 56.6% 0 mm 39 W/m2
18:09 25.1 °C 15.7 °C 1012.1 hPa WSW 0.5 km/h 6.4 km/h 56% 0 mm 28 W/m2
18:14 25 °C 15.8 °C 1012.1 hPa Calm   6.4 km/h 56.6% 0 mm 23 W/m2
18:19 24.9 °C 16.1 °C 1012.1 hPa Calm   6.4 km/h 57.7% 0 mm 19 W/m2
18:24 24.8 °C 16.1 °C 1012.1 hPa Calm   6.4 km/h 58.3% 0 mm 18 W/m2
18:29 24.8 °C 16.3 °C 1012.1 hPa Calm   6.4 km/h 59.4% 0 mm 16 W/m2
18:34 24.7 °C 16.2 °C 1011.7 hPa Calm   6.4 km/h 59.2% 0 mm 14 W/m2
18:39 24.6 °C 16 °C 1011.7 hPa Calm     59% 0 mm 14 W/m2
18:44 24.4 °C 16.2 °C 1011.7 hPa Calm     59.9% 0 mm 12 W/m2
18:49 24.3 °C 16.1 °C 1011.7 hPa Calm     60.2% 0 mm 11 W/m2
18:54 24.2 °C 16.2 °C 1011.7 hPa Calm     61% 0 mm 9 W/m2
18:59 24.1 °C 16.1 °C 1012.1 hPa Calm     61% 0 mm 7 W/m2
19:04 23.9 °C 15.9 °C 1011.7 hPa Calm     61% 0 mm 5 W/m2
19:09 23.8 °C 16.1 °C 1012.1 hPa Calm     61.9% 0 mm 0 W/m2
19:14 23.6 °C 15.9 °C 1012.1 hPa Calm     62.1% 0 mm 0 W/m2
19:19 23.4 °C 15.9 °C 1012.1 hPa Calm     63% 0 mm 0 W/m2
19:24 23.2 °C 15.8 °C 1012.1 hPa Calm     63% 0 mm 0 W/m2
19:29 23 °C 15.8 °C 1012.1 hPa Calm     64% 0 mm 0 W/m2
19:34 22.8 °C 15.9 °C 1012.1 hPa Calm     64.8% 0 mm 0 W/m2
19:39 22.6 °C 15.9 °C 1012.1 hPa Calm     65.8% 0 mm 0 W/m2
19:44 22.4 °C 16 °C 1012.1 hPa Calm     66.8% 0 mm 0 W/m2
19:49 22.3 °C 15.8 °C 1012.1 hPa Calm     67% 0 mm 0 W/m2
19:54 22.1 °C 15.9 °C 1012.1 hPa Calm     68% 0 mm 0 W/m2
19:59 21.9 °C 16 °C 1012.1 hPa Calm     69% 0 mm 0 W/m2
20:09 21.6 °C 15.8 °C 1012.4 hPa Calm     70% 0 mm 0 W/m2
20:14 21.4 °C 15.8 °C 1012.4 hPa Calm     70.3% 0 mm 0 W/m2
20:19 21.2 °C 15.8 °C 1012.4 hPa Calm     71% 0 mm 0 W/m2
20:24 21.1 °C 15.7 °C 1012.4 hPa Calm     71.4% 0 mm 0 W/m2
20:29 20.9 °C 15.8 °C 1012.8 hPa Calm     72.2% 0 mm 0 W/m2
20:34 20.8 °C 15.8 °C 1012.8 hPa Calm     73% 0 mm 0 W/m2
20:39 20.7 °C 15.8 °C 1012.8 hPa Calm     73.4% 0 mm 0 W/m2
20:44 20.6 °C 15.9 °C 1012.8 hPa Calm     74.8% 0 mm 0 W/m2
20:49 20.4 °C 16.1 °C 1012.8 hPa Calm     76% 0 mm 0 W/m2
20:54 20.3 °C 16 °C 1012.8 hPa Calm     76.6% 0 mm 0 W/m2
20:59 20.1 °C 16 °C 1013.1 hPa Calm     77.1% 0 mm 0 W/m2
21:04 20 °C 16.1 °C 1013.1 hPa Calm     78% 0 mm 0 W/m2
21:09 19.8 °C 16.1 °C 1012.8 hPa Calm     78.7% 0 mm 0 W/m2
21:14 19.8 °C 16 °C 1012.8 hPa Calm     79% 0 mm 0 W/m2
21:19 19.7 °C 15.9 °C 1012.8 hPa Calm     79% 0 mm 0 W/m2
21:24 19.6 °C 16 °C 1012.8 hPa Calm     79.6% 0 mm 0 W/m2
21:29 19.5 °C 16 °C 1012.8 hPa Calm     80.3% 0 mm 0 W/m2
21:34 19.4 °C 16 °C 1012.8 hPa Calm     80.9% 0 mm 0 W/m2
21:39 19.3 °C 15.9 °C 1013.1 hPa Calm     81% 0 mm 0 W/m2
21:44 19.2 °C 16 °C 1013.1 hPa Calm     81.5% 0 mm 0 W/m2
21:49 19.2 °C 16 °C 1013.1 hPa Calm     82% 0 mm 0 W/m2
21:54 19.2 °C 16 °C 1013.1 hPa Calm     82% 0 mm 0 W/m2
21:59 19.2 °C 16 °C 1013.1 hPa Calm     82% 0 mm 0 W/m2
22:04 19.1 °C 15.9 °C 1013.1 hPa Calm     82% 0 mm 0 W/m2
22:09 19.1 °C 16 °C 1013.1 hPa Calm     82.6% 0 mm 0 W/m2
22:14 19 °C 16.1 °C 1013.1 hPa Calm     83% 0 mm 0 W/m2
22:19 18.9 °C 16 °C 1013.1 hPa Calm     83% 0 mm 0 W/m2
22:24 18.9 °C 15.9 °C 1013.1 hPa Calm     83% 0 mm 0 W/m2
22:29 18.8 °C 15.9 °C 1013.1 hPa Calm     83% 0 mm 0 W/m2
22:34 18.7 °C 15.8 °C 1013.1 hPa Calm     83.3% 0 mm 0 W/m2
22:39 18.7 °C 15.9 °C 1012.8 hPa Calm     84% 0 mm 0 W/m2
22:44 18.6 °C 15.8 °C 1013.1 hPa Calm     84% 0 mm 0 W/m2
22:49 18.5 °C 15.8 °C 1013.1 hPa Calm     84.1% 0 mm 0 W/m2
22:54 18.4 °C 15.8 °C 1013.1 hPa Calm     84.7% 0 mm 0 W/m2
22:59 18.3 °C 15.8 °C 1013.1 hPa Calm     85% 0 mm 0 W/m2
23:04 18.3 °C 15.7 °C 1013.1 hPa Calm     85% 0 mm 0 W/m2
23:09 18.3 °C 15.9 °C 1012.8 hPa Calm     86% 0 mm 0 W/m2
23:14 18.2 °C 15.8 °C 1012.8 hPa Calm     86% 0 mm 0 W/m2
23:19 18.2 °C 15.8 °C 1012.8 hPa Calm     86% 0 mm 0 W/m2
23:24 18.1 °C 15.8 °C 1012.8 hPa Calm     86% 0 mm 0 W/m2
23:29 18.1 °C 15.7 °C 1012.8 hPa Calm     86% 0 mm 0 W/m2
23:34 18 °C 15.6 °C 1012.8 hPa Calm     86% 0 mm 0 W/m2
23:39 17.9 °C 15.5 °C 1012.4 hPa Calm     86% 0 mm 0 W/m2
23:44 17.8 °C 15.6 °C 1012.8 hPa Calm     86.8% 0 mm 0 W/m2
23:49 17.7 °C 15.5 °C 1012.4 hPa Calm     87% 0 mm 0 W/m2
23:54 17.6 °C 15.6 °C 1012.4 hPa Calm     87.9% 0 mm 0 W/m2
23:59 17.6 °C 15.6 °C 1012.4 hPa Calm     88% 0 mm 0 W/m2
Hartford County Weather
Compliments of Weather Underground - 4 mb